Time;durP1;ratioP1;P1;durP2;ratioP2;P2;SDS_P1;SDS_P2;PMS_P1;PMS_P2;Temp;Humidity;BMP_temperature;BMP_pressure;BME280_temperature;BME280_humidity;BME280_pressure;Samples;Min_cycle;Max_cycle;Signal;HPM_P1;HPM_P2
2024/02/19 00:02:02;;;;;;;;;;;;;;;0.59;100.00;101237.60;109236;1257;59833;-56
2024/02/19 00:04:30;;;;;;;;;;;;;;;0.57;100.00;101233.91;109245;1254;73906;-60
2024/02/19 00:06:58;;;;;;;;;;;;;;;0.57;100.00;101234.47;109258;1253;67113;-56
2024/02/19 00:09:26;;;;;;;;;;;;;;;0.57;100.00;101230.86;109299;1253;72737;-55
2024/02/19 00:11:53;;;;;;;;;;;;;;;0.57;100.00;101229.31;109333;1253;60117;-56
2024/02/19 00:14:21;;;;;;;;;;;;;;;0.57;100.00;101228.10;109234;1253;59842;-56
2024/02/19 00:16:48;;;;;;;;;;;;;;;0.57;100.00;101229.86;109220;1252;74251;-56
2024/02/19 00:19:15;;;;;;;;;;;;;;;0.57;100.00;101231.23;109328;1253;67174;-55
2024/02/19 00:21:43;;;;;;;;;;;;;;;0.57;100.00;101233.42;109242;1253;71451;-56
2024/02/19 00:24:11;;;;;;;;;;;;;;;0.59;100.00;101234.51;109235;1253;59824;-56
2024/02/19 00:26:38;;;;;;;;;;;;;;;0.59;100.00;101236.38;109286;1253;59921;-56
2024/02/19 00:29:06;;;;;;;;;;;;;;;0.60;100.00;101238.53;109209;1253;75636;-56
2024/02/19 00:31:34;;;;;;;;;;;;;;;0.63;100.00;101237.34;109286;1253;66976;-56
2024/02/19 00:34:01;;;;;;;;;;;;;;;0.64;100.00;101238.63;109293;1253;72898;-55
2024/02/19 00:36:29;;;;;;;;;;;;;;;0.62;100.00;101234.66;109269;1253;59931;-56
2024/02/19 00:38:56;;;;;;;;;;;;;;;0.61;100.00;101238.27;109292;1253;59854;-55
2024/02/19 00:41:24;;;;;;;;;;;;;;;0.60;100.00;101237.82;109247;1253;75508;-53
2024/02/19 00:43:51;;;;;;;;;;;;;;;0.59;100.00;101236.04;109278;1253;65658;-54
2024/02/19 00:46:19;;;;;;;;;;;;;;;0.59;100.00;101232.61;109300;1253;71791;-54
2024/02/19 00:48:46;;;;;;;;;;;;;;;0.60;100.00;101231.35;109247;1254;59965;-54
2024/02/19 00:51:14;;;;;;;;;;;;;;;0.59;100.00;101230.26;109310;1253;59893;-59
2024/02/19 00:53:42;;;;;;;;;;;;;;;0.57;100.00;101231.86;109242;1253;73989;-54
2024/02/19 00:56:09;;;;;;;;;;;;;;;0.55;100.00;101233.74;109324;1253;67278;-53
2024/02/19 00:58:37;;;;;;;;;;;;;;;0.54;100.00;101230.52;109281;1253;72756;-54
2024/02/19 01:01:04;;;;;;;;;;;;;;;0.53;100.00;101232.48;109282;1253;59775;-54
2024/02/19 01:03:32;;;;;;;;;;;;;;;0.53;100.00;101230.94;109257;1253;60127;-59
2024/02/19 01:05:59;;;;;;;;;;;;;;;0.53;100.00;101233.65;109250;1253;75502;-55
2024/02/19 01:08:27;;;;;;;;;;;;;;;0.51;100.00;101234.14;109299;1253;65507;-55
2024/02/19 01:10:54;;;;;;;;;;;;;;;0.49;100.00;101229.48;109289;1253;72723;-54
2024/02/19 01:13:22;;;;;;;;;;;;;;;0.46;100.00;101227.94;109265;1253;59940;-55
2024/02/19 01:15:49;;;;;;;;;;;;;;;0.42;100.00;101226.27;109234;1252;59885;-55
2024/02/19 01:18:17;;;;;;;;;;;;;;;0.40;100.00;101232.58;109278;1253;75520;-56
2024/02/19 01:20:45;;;;;;;;;;;;;;;0.38;100.00;101226.55;109230;1253;66964;-55
2024/02/19 01:23:13;;;;;;;;;;;;;;;0.35;100.00;101221.27;109260;1254;72648;-55
2024/02/19 01:25:40;;;;;;;;;;;;;;;0.34;100.00;101221.65;109295;1253;59702;-56
2024/02/19 01:28:08;;;;;;;;;;;;;;;0.34;100.00;101217.20;109241;1254;60196;-55
2024/02/19 01:30:35;;;;;;;;;;;;;;;0.34;100.00;101218.45;109274;1253;75912;-54
2024/02/19 01:33:03;;;;;;;;;;;;;;;0.30;100.00;101217.28;109277;1252;67427;-55
2024/02/19 01:35:32;;;;;;;;;;;;;;;0.28;100.00;101213.16;109298;1253;72947;-55
2024/02/19 01:38:00;;;;;;;;;;;;;;;0.25;100.00;101211.45;109266;1253;61085;-56
2024/02/19 01:40:27;;;;;;;;;;;;;;;0.23;100.00;101212.08;109247;1253;60253;-55
2024/02/19 01:43:04;;;;;;;;;;;;;;;0.21;100.00;101213.69;109319;1253;74352;-55
2024/02/19 01:45:32;;;;;;;;;;;;;;;0.21;100.00;101207.19;109309;1253;66927;-54
2024/02/19 01:48:00;;;;;;;;;;;;;;;0.20;100.00;101205.55;109277;1253;72757;-57
2024/02/19 01:50:29;;;;;;;;;;;;;;;0.19;100.00;101204.94;109201;1253;60336;-54
2024/02/19 01:52:57;;;;;;;;;;;;;;;0.18;100.00;101204.99;109354;1253;60150;-54
2024/02/19 01:55:25;;;;;;;;;;;;;;;0.16;100.00;101207.55;109243;1253;74439;-55
2024/02/19 01:57:54;;;;;;;;;;;;;;;0.14;100.00;101211.40;109277;1253;65624;-55
2024/02/19 02:00:22;;;;;;;;;;;;;;;0.14;100.00;101214.66;109250;1254;72811;-55
2024/02/19 02:02:49;;;;;;;;;;;;;;;0.14;100.00;101217.57;109297;1253;60226;-54
2024/02/19 02:05:17;;;;;;;;;;;;;;;0.13;100.00;101218.67;109359;1253;60196;-54
2024/02/19 02:07:45;;;;;;;;;;;;;;;0.10;100.00;101217.11;109271;1253;75539;-55
2024/02/19 02:10:12;;;;;;;;;;;;;;;0.09;100.00;101212.90;109303;1253;67177;-55
2024/02/19 02:12:40;;;;;;;;;;;;;;;0.08;100.00;101213.82;109394;1253;71794;-54
2024/02/19 02:15:08;;;;;;;;;;;;;;;0.07;100.00;101215.26;109331;1252;59835;-54
2024/02/19 02:17:35;;;;;;;;;;;;;;;0.06;100.00;101217.20;109350;1253;59851;-55
2024/02/19 02:20:04;;;;;;;;;;;;;;;0.06;100.00;101218.06;109344;1253;75564;-54
2024/02/19 02:22:31;;;;;;;;;;;;;;;0.03;100.00;101216.85;109253;1253;67071;-58
2024/02/19 02:25:00;;;;;;;;;;;;;;;0.01;100.00;101224.15;109320;1253;71784;-55
2024/02/19 02:27:29;;;;;;;;;;;;;;;-0.02;100.00;101218.88;109303;1253;60365;-55
2024/02/19 02:29:56;;;;;;;;;;;;;;;-0.03;100.00;101223.36;109314;1253;59772;-54
2024/02/19 02:32:24;;;;;;;;;;;;;;;-0.02;100.00;101224.19;109295;1253;75577;-56
2024/02/19 02:34:52;;;;;;;;;;;;;;;-0.03;100.00;101225.08;109345;1253;66039;-54
2024/02/19 02:37:20;;;;;;;;;;;;;;;-0.05;100.00;101225.51;109306;1253;72769;-55
2024/02/19 02:39:48;;;;;;;;;;;;;;;-0.05;100.00;101233.54;109236;1253;59837;-55
2024/02/19 02:42:15;;;;;;;;;;;;;;;-0.06;100.00;101236.05;109334;1252;60044;-55
2024/02/19 02:44:43;;;;;;;;;;;;;;;-0.08;100.00;101237.98;109236;1254;75021;-54
2024/02/19 02:47:10;;;;;;;;;;;;;;;-0.09;100.00;101237.71;109343;1253;67086;-56
2024/02/19 02:49:37;;;;;;;;;;;;;;;-0.11;100.00;101238.23;109287;1253;71440;-55
2024/02/19 02:52:05;;;;;;;;;;;;;;;-0.12;100.00;101234.66;109299;1253;59780;-56
2024/02/19 02:54:33;;;;;;;;;;;;;;;-0.12;100.00;101237.73;109311;1253;59792;-57
2024/02/19 02:57:00;;;;;;;;;;;;;;;-0.12;100.00;101235.89;109279;1253;74550;-55
2024/02/19 02:59:28;;;;;;;;;;;;;;;-0.13;100.00;101235.45;109369;1253;66838;-55
2024/02/19 03:01:55;;;;;;;;;;;;;;;-0.14;100.00;101240.13;109301;1253;71458;-55
2024/02/19 03:04:23;;;;;;;;;;;;;;;-0.16;100.00;101237.84;109233;1253;60916;-54
2024/02/19 03:06:51;;;;;;;;;;;;;;;-0.18;100.00;101243.41;109231;1253;59946;-59
2024/02/19 03:09:18;;;;;;;;;;;;;;;-0.18;100.00;101243.39;109337;1253;73873;-55
2024/02/19 03:11:46;;;;;;;;;;;;;;;-0.18;100.00;101243.58;109392;1252;67540;-55
2024/02/19 03:14:14;;;;;;;;;;;;;;;-0.19;100.00;101249.77;109293;1252;71456;-55
2024/02/19 03:16:41;;;;;;;;;;;;;;;-0.19;100.00;101254.73;109321;1253;59734;-55
2024/02/19 03:19:09;;;;;;;;;;;;;;;-0.20;100.00;101253.61;109234;1252;59876;-56
2024/02/19 03:21:37;;;;;;;;;;;;;;;-0.20;100.00;101253.48;109349;1252;74669;-54
2024/02/19 03:24:05;;;;;;;;;;;;;;;-0.22;100.00;101253.70;109343;1252;66935;-55
2024/02/19 03:26:33;;;;;;;;;;;;;;;-0.22;100.00;101249.29;109235;1253;72732;-55
2024/02/19 03:29:11;;;;;;;;;;;;;;;-0.23;100.00;101254.28;109286;1253;60540;-55
2024/02/19 03:31:40;;;;;;;;;;;;;;;-0.24;100.00;101255.88;109298;1253;59764;-54
2024/02/19 03:34:08;;;;;;;;;;;;;;;-0.26;100.00;101255.27;109309;1252;73288;-55
2024/02/19 03:36:36;;;;;;;;;;;;;;;-0.27;100.00;101258.42;109283;1252;65923;-56
2024/02/19 03:39:04;;;;;;;;;;;;;;;-0.28;100.00;101260.88;109270;1253;72150;-55
2024/02/19 03:41:32;;;;;;;;;;;;;;;-0.30;100.00;101259.80;109283;1253;60981;-55
2024/02/19 03:43:59;;;;;;;;;;;;;;;-0.31;100.00;101263.59;109285;1253;59798;-55
2024/02/19 03:46:27;;;;;;;;;;;;;;;-0.31;100.00;101268.55;109310;1252;75552;-55
2024/02/19 03:48:54;;;;;;;;;;;;;;;-0.29;100.00;101270.63;109325;1252;65523;-60
2024/02/19 03:51:23;;;;;;;;;;;;;;;-0.27;100.00;101268.16;109228;1255;72788;-54
2024/02/19 03:53:50;;;;;;;;;;;;;;;-0.25;100.00;101267.19;109276;1252;59786;-55
2024/02/19 03:56:18;;;;;;;;;;;;;;;-0.24;100.00;101267.98;109311;1252;60434;-55
2024/02/19 03:58:45;;;;;;;;;;;;;;;-0.23;100.00;101269.66;109298;1253;74284;-55
2024/02/19 04:01:13;;;;;;;;;;;;;;;-0.25;100.00;101267.34;109283;1253;66163;-55
2024/02/19 04:03:41;;;;;;;;;;;;;;;-0.26;100.00;101267.93;109325;1252;72768;-55
2024/02/19 04:06:09;;;;;;;;;;;;;;;-0.29;100.00;101266.89;109230;1253;60076;-55
2024/02/19 04:08:36;;;;;;;;;;;;;;;-0.32;100.00;101268.61;109267;1253;59876;-54
2024/02/19 04:11:04;;;;;;;;;;;;;;;-0.35;100.00;101270.48;109314;1253;75543;-59
2024/02/19 04:13:31;;;;;;;;;;;;;;;-0.36;100.00;101270.42;109255;1253;67507;-55
2024/02/19 04:15:59;;;;;;;;;;;;;;;-0.37;100.00;101273.67;109293;1255;71426;-55
2024/02/19 04:18:26;;;;;;;;;;;;;;;-0.36;100.00;101278.77;109338;1252;59792;-56
2024/02/19 04:20:54;;;;;;;;;;;;;;;-0.37;100.00;101278.63;109321;1252;59903;-55
2024/02/19 04:23:21;;;;;;;;;;;;;;;-0.38;100.00;101285.71;109294;1252;74875;-56
2024/02/19 04:25:49;;;;;;;;;;;;;;;-0.39;100.00;101284.05;109297;1253;66930;-55
2024/02/19 04:28:16;;;;;;;;;;;;;;;-0.39;100.00;101290.20;109299;1252;72694;-56
2024/02/19 04:30:44;;;;;;;;;;;;;;;-0.41;100.00;101294.09;109286;1253;60237;-55
2024/02/19 04:33:11;;;;;;;;;;;;;;;-0.44;100.00;101292.70;109237;1253;59874;-56
2024/02/19 04:35:39;;;;;;;;;;;;;;;-0.46;100.00;101299.13;109240;1253;74670;-54
2024/02/19 04:38:06;;;;;;;;;;;;;;;-0.47;100.00;101300.21;109276;1252;66962;-56
2024/02/19 04:40:34;;;;;;;;;;;;;;;-0.47;100.00;101298.01;109287;1252;71458;-55
2024/02/19 04:43:01;;;;;;;;;;;;;;;-0.48;100.00;101298.42;109312;1253;59813;-56
2024/02/19 04:45:29;;;;;;;;;;;;;;;-0.49;100.00;101298.63;109193;1252;60449;-55
2024/02/19 04:47:56;;;;;;;;;;;;;;;-0.50;100.00;101302.42;109391;1252;74287;-54
2024/02/19 04:50:24;;;;;;;;;;;;;;;-0.52;100.00;101301.67;109289;1253;66805;-55
2024/02/19 04:52:51;;;;;;;;;;;;;;;-0.53;100.00;101307.88;109288;1253;71447;-54
2024/02/19 04:55:19;;;;;;;;;;;;;;;-0.55;100.00;101309.52;109275;1253;60186;-57
2024/02/19 04:57:46;;;;;;;;;;;;;;;-0.56;100.00;101314.90;109247;1253;59712;-54
2024/02/19 05:00:14;;;;;;;;;;;;;;;-0.58;100.00;101318.56;109293;1253;75550;-54
2024/02/19 05:02:42;;;;;;;;;;;;;;;-0.59;100.00;101319.89;109290;1253;67083;-55
2024/02/19 05:05:09;;;;;;;;;;;;;;;-0.59;100.00;101319.17;109283;1252;71783;-55
2024/02/19 05:07:37;;;;;;;;;;;;;;;-0.57;100.00;101320.23;109225;1253;60136;-58
2024/02/19 05:10:07;;;;;;;;;;;;;;;-0.55;100.00;101324.89;109236;1252;60416;-55
2024/02/19 05:12:34;;;;;;;;;;;;;;;-0.53;100.00;101327.67;109298;1253;74628;-55
2024/02/19 05:15:02;;;;;;;;;;;;;;;-0.50;100.00;101325.98;109274;1253;67164;-54
2024/02/19 05:17:30;;;;;;;;;;;;;;;-0.48;100.00;101328.49;109265;1252;71721;-60
2024/02/19 05:19:58;;;;;;;;;;;;;;;-0.49;100.00;101327.30;109265;1253;60151;-54
2024/02/19 05:22:25;;;;;;;;;;;;;;;-0.47;100.00;101331.48;109258;1253;59793;-54
2024/02/19 05:24:53;;;;;;;;;;;;;;;-0.45;100.00;101331.71;109257;1253;75887;-54
2024/02/19 05:27:24;;;;;;;;;;;;;;;-0.44;100.00;101330.14;109272;1253;65971;-57
2024/02/19 05:29:51;;;;;;;;;;;;;;;-0.44;100.00;101329.77;109228;1253;71446;-55
2024/02/19 05:32:19;;;;;;;;;;;;;;;-0.40;100.00;101332.10;109231;1253;60926;-54
2024/02/19 05:34:46;;;;;;;;;;;;;;;-0.34;100.00;101332.31;109267;1253;59797;-55
2024/02/19 05:37:14;;;;;;;;;;;;;;;-0.33;100.00;101334.59;109202;1255;74259;-55
2024/02/19 05:39:42;;;;;;;;;;;;;;;-0.31;100.00;101342.17;109207;1252;66995;-60
2024/02/19 05:42:10;;;;;;;;;;;;;;;-0.30;100.00;101346.04;109386;1252;72693;-55
2024/02/19 05:44:37;;;;;;;;;;;;;;;-0.26;100.00;101349.57;109224;1253;60911;-54
2024/02/19 05:47:05;;;;;;;;;;;;;;;-0.20;100.00;101345.01;109228;1253;60225;-55
2024/02/19 05:49:32;;;;;;;;;;;;;;;-0.15;100.00;101344.35;109274;1252;74252;-55
2024/02/19 05:52:00;;;;;;;;;;;;;;;-0.08;100.00;101350.79;109214;1253;67595;-54
2024/02/19 05:54:28;;;;;;;;;;;;;;;0.00;100.00;101349.48;109239;1253;71596;-55
2024/02/19 05:56:55;;;;;;;;;;;;;;;0.07;100.00;101347.03;109217;1253;59737;-54
2024/02/19 05:59:23;;;;;;;;;;;;;;;0.11;100.00;101347.98;109259;1253;60161;-54
2024/02/19 06:01:50;;;;;;;;;;;;;;;0.15;100.00;101352.70;109229;1253;74221;-57
2024/02/19 06:04:18;;;;;;;;;;;;;;;0.20;100.00;101351.02;109299;1253;65690;-55
2024/02/19 06:06:45;;;;;;;;;;;;;;;0.23;100.00;101350.20;109297;1253;72769;-55
2024/02/19 06:09:13;;;;;;;;;;;;;;;0.28;100.00;101348.58;109199;1253;60171;-56
2024/02/19 06:11:44;;;;;;;;;;;;;;;0.32;100.00;101350.19;109254;1253;60196;-54
2024/02/19 06:14:11;;;;;;;;;;;;;;;0.42;100.00;101351.81;109214;1253;76064;-54
2024/02/19 06:16:39;;;;;;;;;;;;;;;0.52;100.00;101350.20;109288;1252;67136;-55
2024/02/19 06:19:08;;;;;;;;;;;;;;;0.63;100.00;101348.71;109323;1252;72755;-55
2024/02/19 06:21:36;;;;;;;;;;;;;;;0.71;100.00;101348.02;109296;1253;59849;-54
2024/02/19 06:24:04;;;;;;;;;;;;;;;0.80;100.00;101347.67;109302;1252;60166;-54
2024/02/19 06:26:31;;;;;;;;;;;;;;;0.93;100.00;101348.92;109338;1251;74585;-55
2024/02/19 06:28:59;;;;;;;;;;;;;;;1.05;100.00;101349.52;109299;1253;65050;-55
2024/02/19 06:31:27;;;;;;;;;;;;;;;1.14;100.00;101350.05;109295;1253;71545;-56
2024/02/19 06:33:55;;;;;;;;;;;;;;;1.20;100.00;101345.35;109316;1255;60181;-61
2024/02/19 06:36:24;;;;;;;;;;;;;;;1.27;100.00;101343.56;109314;1252;60253;-56
2024/02/19 06:38:51;;;;;;;;;;;;;;;1.35;100.00;101341.54;109384;1253;74466;-56
2024/02/19 06:41:19;;;;;;;;;;;;;;;1.46;100.00;101340.83;109371;1253;65686;-56
2024/02/19 06:43:46;;;;;;;;;;;;;;;1.61;100.00;101337.77;109355;1252;75010;-56
2024/02/19 06:46:14;;;;;;;;;;;;;;;1.71;100.00;101336.86;109287;1254;60168;-59
2024/02/19 06:48:42;;;;;;;;;;;;;;;1.77;100.00;101337.48;109312;1252;60288;-57
2024/02/19 06:51:11;;;;;;;;;;;;;;;1.86;100.00;101336.19;109313;1251;75596;-58
2024/02/19 06:53:38;;;;;;;;;;;;;;;1.99;100.00;101333.46;109371;1252;67024;-59
2024/02/19 06:56:07;;;;;;;;;;;;;;;2.18;100.00;101331.80;109314;1254;72423;-59
2024/02/19 06:58:35;;;;;;;;;;;;;;;2.40;100.00;101324.01;109262;1253;59792;-59
2024/02/19 07:01:04;;;;;;;;;;;;;;;2.61;100.00;101325.85;109337;1252;60721;-60
2024/02/19 07:03:33;;;;;;;;;;;;;;;2.80;100.00;101320.41;109342;1252;78387;-60
2024/02/19 07:06:00;;;;;;;;;;;;;;;2.95;100.00;101322.98;109358;1252;65225;-64
2024/02/19 07:08:28;;;;;;;;;;;;;;;3.04;100.00;101323.71;109314;1256;71103;-61
2024/02/19 07:10:56;;;;;;;;;;;;;;;3.03;100.00;101321.19;109336;1252;59721;-61
2024/02/19 07:13:23;;;;;;;;;;;;;;;3.11;100.00;101323.72;109344;1252;59816;-60
2024/02/19 07:15:51;;;;;;;;;;;;;;;3.25;100.00;101321.76;109371;1253;75466;-60
2024/02/19 07:18:19;;;;;;;;;;;;;;;3.36;100.00;101320.76;109283;1253;64664;-67
2024/02/19 07:20:46;;;;;;;;;;;;;;;3.40;100.00;101320.08;109341;1252;71387;-61
2024/02/19 07:23:14;;;;;;;;;;;;;;;3.43;100.00;101322.13;109322;1252;59932;-61
2024/02/19 07:25:41;;;;;;;;;;;;;;;3.54;100.00;101319.30;109357;1252;59703;-62
2024/02/19 07:28:09;;;;;;;;;;;;;;;3.53;100.00;101318.17;109208;1253;73696;-61
2024/02/19 07:30:38;;;;;;;;;;;;;;;3.54;100.00;101316.05;109237;1253;67532;-61
2024/02/19 07:33:06;;;;;;;;;;;;;;;3.80;100.00;101316.20;109242;1253;75177;-62
2024/02/19 07:35:33;;;;;;;;;;;;;;;4.22;100.00;101313.03;109212;1255;60068;-61
2024/02/19 07:38:01;;;;;;;;;;;;;;;4.58;100.00;101313.39;109232;1253;63131;-62
2024/02/19 07:40:28;;;;;;;;;;;;;;;4.70;100.00;101314.38;109205;1252;78187;-62
2024/02/19 07:43:01;;;;;;;;;;;;;;;4.48;100.00;101310.75;109177;1253;65651;-62
2024/02/19 07:45:29;;;;;;;;;;;;;;;4.21;100.00;101313.13;109185;1253;75695;-62
2024/02/19 07:47:56;;;;;;;;;;;;;;;3.96;100.00;101313.41;109195;1253;59784;-62
2024/02/19 07:50:24;;;;;;;;;;;;;;;3.76;100.00;101319.06;109328;1253;61941;-62
2024/02/19 07:52:51;;;;;;;;;;;;;;;3.41;100.00;101320.55;109179;1253;75879;-62
2024/02/19 07:55:19;;;;;;;;;;;;;;;3.15;100.00;101322.98;109242;1253;66808;-59
2024/02/19 07:57:47;;;;;;;;;;;;;;;2.94;100.00;101324.09;109202;1253;72753;-62
2024/02/19 08:00:14;;;;;;;;;;;;;;;2.94;100.00;101321.33;109210;1252;60145;-62
2024/02/19 08:02:42;;;;;;;;;;;;;;;3.37;100.00;101324.09;109251;1253;59740;-60
2024/02/19 08:05:09;;;;;;;;;;;;;;;3.77;100.00;101313.34;109213;1253;76136;-60
2024/02/19 08:07:37;;;;;;;;;;;;;;;3.95;100.00;101310.62;109324;1252;66290;-60
2024/02/19 08:10:05;;;;;;;;;;;;;;;3.88;100.00;101313.85;109335;1253;72723;-60
2024/02/19 08:12:34;;;;;;;;;;;;;;;3.86;100.00;101316.59;109326;1253;61380;-61
2024/02/19 08:15:07;;;;;;;;;;;;;;;4.04;100.00;101317.35;109357;1252;59955;-62
2024/02/19 08:17:34;;;;;;;;;;;;;;;4.31;100.00;101316.86;109356;1253;77415;-61
2024/02/19 08:20:03;;;;;;;;;;;;;;;4.61;100.00;101314.53;109349;1253;68300;-60
2024/02/19 08:22:31;;;;;;;;;;;;;;;4.94;100.00;101316.27;109342;1252;75950;-60
2024/02/19 08:24:59;;;;;;;;;;;;;;;5.43;100.00;101310.00;109295;1253;60298;-65
2024/02/19 08:27:27;;;;;;;;;;;;;;;5.93;100.00;101306.95;109271;1252;59751;-58
2024/02/19 08:29:55;;;;;;;;;;;;;;;6.23;100.00;101306.90;109365;1252;77418;-57
2024/02/19 08:32:22;;;;;;;;;;;;;;;6.35;100.00;101309.29;109388;1252;68161;-57
2024/02/19 08:34:50;;;;;;;;;;;;;;;6.42;100.00;101307.16;109302;1254;75007;-62
2024/02/19 08:37:18;;;;;;;;;;;;;;;6.59;100.00;101307.58;109284;1252;59759;-57
2024/02/19 08:39:47;;;;;;;;;;;;;;;6.71;95.09;101305.42;109369;1253;60741;-57
2024/02/19 08:42:15;;;;;;;;;;;;;;;6.69;97.07;101302.77;109306;1252;73649;-57
2024/02/19 08:44:42;;;;;;;;;;;;;;;6.98;97.79;101307.02;109337;1253;67999;-56
2024/02/19 08:47:10;;;;;;;;;;;;;;;7.31;93.86;101308.21;109314;1253;75563;-63
2024/02/19 08:49:38;;;;;;;;;;;;;;;7.61;73.27;101311.27;109350;1253;61114;-57
2024/02/19 08:52:06;;;;;;;;;;;;;;;7.60;67.06;101306.59;109385;1252;63178;-57
2024/02/19 08:54:33;;;;;;;;;;;;;;;7.52;63.12;101309.64;109416;1252;77802;-57
2024/02/19 08:57:01;;;;;;;;;;;;;;;7.33;61.01;101309.80;109312;1252;69335;-57
2024/02/19 08:59:28;;;;;;;;;;;;;;;7.13;62.41;101310.21;109339;1252;74251;-56
2024/02/19 09:01:57;;;;;;;;;;;;;;;6.94;58.22;101310.99;109349;1252;61380;-56
2024/02/19 09:04:25;;;;;;;;;;;;;;;6.47;53.75;101308.27;109355;1252;60121;-56
2024/02/19 09:06:53;;;;;;;;;;;;;;;6.04;54.56;101314.11;109328;1252;75792;-57
2024/02/19 09:09:20;;;;;;;;;;;;;;;5.86;55.69;101311.98;109358;1252;68032;-55
2024/02/19 09:11:48;;;;;;;;;;;;;;;5.63;54.41;101313.17;109321;1253;75035;-56
2024/02/19 09:14:16;;;;;;;;;;;;;;;5.28;52.49;101312.54;109292;1252;60092;-56
2024/02/19 09:16:43;;;;;;;;;;;;;;;4.95;51.42;101315.33;109378;1252;60029;-60
2024/02/19 09:19:11;;;;;;;;;;;;;;;4.69;51.76;101315.78;109336;1253;78818;-55
2024/02/19 09:21:39;;;;;;;;;;;;;;;4.56;52.65;101314.27;109343;1252;67087;-56
2024/02/19 09:24:06;;;;;;;;;;;;;;;4.74;54.60;101312.85;109360;1252;74912;-56
2024/02/19 09:26:34;;;;;;;;;;;;;;;5.14;56.16;101309.18;109292;1252;59877;-56
2024/02/19 09:29:01;;;;;;;;;;;;;;;5.67;55.70;101307.00;109297;1253;59775;-55
2024/02/19 09:31:29;;;;;;;;;;;;;;;6.10;54.53;101300.05;109365;1253;75545;-56
2024/02/19 09:33:56;;;;;;;;;;;;;;;6.43;52.29;101293.77;109445;1252;69409;-55
2024/02/19 09:36:24;;;;;;;;;;;;;;;6.45;49.01;101290.63;109372;1252;75246;-56
2024/02/19 09:38:55;;;;;;;;;;;;;;;6.32;48.77;101290.09;109342;1252;61403;-60
2024/02/19 09:41:22;;;;;;;;;;;;;;;6.17;48.38;101293.55;109296;1253;60928;-55
2024/02/19 09:43:51;;;;;;;;;;;;;;;5.94;47.17;101290.83;109431;1252;76584;-55
2024/02/19 09:46:21;;;;;;;;;;;;;;;5.71;47.67;101292.00;109230;1253;69699;-55
2024/02/19 09:48:49;;;;;;;;;;;;;;;5.67;48.24;101288.19;109316;1253;75086;-60
2024/02/19 09:51:21;;;;;;;;;;;;;;;5.62;47.05;101282.09;109423;1253;62805;-54
2024/02/19 09:54:03;;;;;;;;;;;;;;;5.47;47.21;101289.69;109446;1252;59856;-55
2024/02/19 09:56:30;;;;;;;;;;;;;;;5.25;46.63;101289.14;109148;1253;75910;-55
2024/02/19 09:58:58;;;;;;;;;;;;;;;5.03;47.14;101287.86;109409;1253;70721;-57
2024/02/19 10:01:25;;;;;;;;;;;;;;;4.85;47.49;101290.98;109453;1252;71458;-55
2024/02/19 10:03:53;;;;;;;;;;;;;;;4.52;46.66;101293.58;109437;1252;61355;-54
2024/02/19 10:06:21;;;;;;;;;;;;;;;4.09;46.75;101297.98;109505;1252;62028;-55
2024/02/19 10:08:48;;;;;;;;;;;;;;;3.82;47.59;101294.23;109412;1252;77537;-56
2024/02/19 10:11:16;;;;;;;;;;;;;;;3.76;48.90;101292.05;109427;1253;69561;-55
2024/02/19 10:13:44;;;;;;;;;;;;;;;3.87;50.10;101296.39;109489;1253;75063;-55
2024/02/19 10:16:12;;;;;;;;;;;;;;;4.08;50.81;101295.35;109451;1252;61334;-54
2024/02/19 10:18:39;;;;;;;;;;;;;;;4.29;50.37;101297.70;109425;1252;60938;-55
2024/02/19 10:21:08;;;;;;;;;;;;;;;4.41;49.96;101298.14;109412;1252;77556;-60
2024/02/19 10:23:36;;;;;;;;;;;;;;;4.46;49.63;101303.63;109272;1252;68088;-55
2024/02/19 10:26:03;;;;;;;;;;;;;;;4.47;49.24;101307.91;109404;1253;74673;-55
2024/02/19 10:28:31;;;;;;;;;;;;;;;4.42;48.44;101305.70;109409;1252;61756;-55
2024/02/19 10:30:59;;;;;;;;;;;;;;;4.36;48.95;101305.30;109500;1252;60933;-57
2024/02/19 10:33:26;;;;;;;;;;;;;;;4.28;48.96;101314.14;109376;1253;76485;-57
2024/02/19 10:35:54;;;;;;;;;;;;;;;4.20;49.66;101313.16;109459;1252;68882;-56
2024/02/19 10:38:22;;;;;;;;;;;;;;;4.07;49.82;101315.55;109507;1252;74244;-56
2024/02/19 10:40:49;;;;;;;;;;;;;;;3.89;49.89;101312.56;109487;1252;61084;-57
2024/02/19 10:43:17;;;;;;;;;;;;;;;3.73;50.52;101314.10;109497;1253;60745;-57
2024/02/19 10:45:47;;;;;;;;;;;;;;;3.70;51.58;101316.79;109396;1257;77554;-56
2024/02/19 10:48:14;;;;;;;;;;;;;;;3.71;51.84;101316.14;109494;1253;68773;-56
2024/02/19 10:50:42;;;;;;;;;;;;;;;3.71;51.59;101319.93;109303;1253;74846;-57
2024/02/19 10:53:10;;;;;;;;;;;;;;;3.72;52.12;101318.37;109344;1253;62560;-56
2024/02/19 10:55:38;;;;;;;;;;;;;;;3.75;52.50;101317.45;109295;1253;61826;-56
2024/02/19 10:58:24;;;;;;;;;;;;;;;3.72;51.37;101315.41;109198;1252;76808;-58
2024/02/19 11:00:53;;;;;;;;;;;;;;;3.54;51.26;101319.25;109218;1252;68861;-56
2024/02/19 11:03:24;;;;;;;;;;;;;;;3.34;51.60;101320.03;109153;1253;73716;-56
2024/02/19 11:05:52;;;;;;;;;;;;;;;3.18;52.35;101322.89;109429;1252;59759;-57
2024/02/19 11:08:23;;;;;;;;;;;;;;;3.15;53.87;101324.11;109294;1253;61943;-56
2024/02/19 11:10:52;;;;;;;;;;;;;;;3.17;55.00;101327.10;109343;1251;76944;-57
2024/02/19 11:13:21;;;;;;;;;;;;;;;3.20;55.37;101327.78;109420;1253;70085;-56
2024/02/19 11:15:49;;;;;;;;;;;;;;;3.22;55.55;101325.08;109361;1253;74830;-58
2024/02/19 11:18:18;;;;;;;;;;;;;;;3.26;55.36;101321.66;109313;1252;60349;-56
2024/02/19 11:20:46;;;;;;;;;;;;;;;3.27;55.10;101328.30;109362;1253;61635;-57
2024/02/19 11:23:17;;;;;;;;;;;;;;;3.27;55.12;101323.98;108960;1253;432234;-60
2024/02/19 11:25:46;;;;;;;;;;;;;;;3.19;55.71;101329.02;109379;1252;69567;-57
2024/02/19 11:28:13;;;;;;;;;;;;;;;3.15;56.51;101328.25;109326;1253;75242;-58
2024/02/19 11:30:41;;;;;;;;;;;;;;;3.13;57.21;101327.69;109292;1253;62514;-57
2024/02/19 11:33:11;;;;;;;;;;;;;;;3.12;57.95;101326.94;109356;1253;61769;-59
2024/02/19 11:35:41;;;;;;;;;;;;;;;3.13;58.68;101329.92;109414;1252;77756;-57
2024/02/19 11:38:09;;;;;;;;;;;;;;;3.16;57.56;101326.11;109430;1252;68965;-56
2024/02/19 11:40:37;;;;;;;;;;;;;;;3.12;56.78;101327.98;109349;1253;74252;-55
2024/02/19 11:43:05;;;;;;;;;;;;;;;3.13;58.05;101324.77;109319;1252;62319;-55
2024/02/19 11:45:33;;;;;;;;;;;;;;;3.16;57.19;101326.45;109307;1253;61126;-59
2024/02/19 11:48:00;;;;;;;;;;;;;;;3.13;56.83;101322.73;109258;1253;78444;-55
2024/02/19 11:50:28;;;;;;;;;;;;;;;3.05;57.19;101324.33;109471;1252;70635;-55
2024/02/19 11:52:59;;;;;;;;;;;;;;;3.01;57.90;101324.80;109451;1253;76230;-57
2024/02/19 11:55:30;;;;;;;;;;;;;;;2.98;56.83;101321.89;109411;1252;60385;-61
2024/02/19 11:58:01;;;;;;;;;;;;;;;2.91;56.27;101316.05;109412;1253;60776;-56
2024/02/19 12:00:30;;;;;;;;;;;;;;;2.81;56.08;101312.83;109425;1252;77528;-56
2024/02/19 12:02:59;;;;;;;;;;;;;;;2.73;57.00;101313.89;109476;1253;65884;-56
2024/02/19 12:05:27;;;;;;;;;;;;;;;2.73;58.64;101313.33;109441;1252;74354;-64
2024/02/19 12:07:55;;;;;;;;;;;;;;;2.76;59.76;101312.61;109354;1252;61423;-58
2024/02/19 12:10:23;;;;;;;;;;;;;;;2.78;59.76;101306.30;109469;1253;60928;-55
2024/02/19 12:12:51;;;;;;;;;;;;;;;2.74;59.06;101308.48;109437;1253;77569;-55
2024/02/19 12:15:19;;;;;;;;;;;;;;;2.67;60.53;101309.45;109440;1252;70585;-56
2024/02/19 12:17:52;;;;;;;;;;;;;;;2.66;60.72;101309.20;109423;1256;76111;-55
2024/02/19 12:20:20;;;;;;;;;;;;;;;2.65;60.57;101304.10;109436;1253;60928;-55
2024/02/19 12:22:48;;;;;;;;;;;;;;;2.66;59.95;101304.41;109505;1253;60787;-59
2024/02/19 12:25:16;;;;;;;;;;;;;;;2.63;60.01;101303.04;109428;1256;77535;-55
2024/02/19 12:27:43;;;;;;;;;;;;;;;2.70;62.13;101301.88;109382;1253;69306;-59
2024/02/19 12:30:11;;;;;;;;;;;;;;;2.81;61.75;101306.63;109294;1252;74920;-55
2024/02/19 12:32:39;;;;;;;;;;;;;;;2.80;58.72;101304.80;109136;1253;59778;-55